Government Vessel 40 — NGXO — position and weather

sailwx.info

Track history (hours):
 
Tides and Currents Weather Stations Pressure Air Temp Water Temp Dewpoint Dewpoint Depression Visibility Wind Speed Wind Dir Waves Ship Positions

Government Vessel 40

Last reported at 2017-Dec-25 21:47 UTC. Time now 2018-Jan-20 03:48 UTC.
Position N 32°49' W 125°45'.
Warning: this ship's position is 25 days out of date.

Length 197 m; draft 7.3 m.

Type: Other ship. MMSI: 338973000.

Date/timePositionNaut miles runAvg speedWind from/ knotsBaromVisibWave heightAir tempDewpointWater temp
2017-Dec-25 21:47N 32°49' W 125°45'310.7
2017-Dec-25 21:30N 32°52' W 125°45'510.9
2017-Dec-25 21:00N 32°57' W 125°45'610.8
2017-Dec-25 20:30N 33°03' W 125°45'4211.6
2017-Dec-25 16:52N 33°45' W 125°45'612.4
2017-Dec-25 16:23N 33°51' W 125°45'2312.5
2017-Dec-25 14:35N 34°14' W 125°45'312.5
2017-Dec-25 14:21N 34°16' W 125°45'412.4
2017-Dec-25 14:00N 34°21' W 125°45'3512.4
2017-Dec-25 11:10N 34°56' W 125°45'212.1
2017-Dec-25 11:00N 34°58' W 125°45'2312.0
2017-Dec-25 09:06N 35°21' W 125°45'111.5
2017-Dec-25 09:00N 35°22' W 125°45'611.8
2017-Dec-25 08:30N 35°28' W 125°45'611.4
2017-Dec-25 08:00N 35°33' W 125°45'611.1
2017-Dec-25 07:30N 35°39' W 125°45'511.0
2017-Dec-25 07:00N 35°44' W 125°45'6510.9
2017-Dec-25 01:01N 36°50' W 125°45'510.9
2017-Dec-25 00:31N 36°55' W 125°45'411.2
2017-Dec-25 00:09N 36°59' W 125°45'310.8
2017-Dec-24 23:54N 37°02' W 125°45'510.7
2017-Dec-24 23:25N 37°07' W 125°45'54 9.6
2017-Dec-24 17:50N 38°01' W 125°45'43011.9
2017-Dec-23 05:47N 45°08' W 124°42'713.6
2017-Dec-23 05:17N 45°14' W 124°39'413.7
2017-Dec-23 04:59N 45°18' W 124°37'613.6
2017-Dec-23 04:31N 45°24' W 124°34'713.2
2017-Dec-23 04:00N 45°31' W 124°30'612.5
2017-Dec-23 03:30N 45°37' W 124°28'613.0
2017-Dec-23 03:00N 45°43' W 124°25'713.1
2017-Dec-23 02:30N 45°49' W 124°22'713.3
2017-Dec-23 02:01N 45°55' W 124°19'713.6
2017-Dec-23 01:31N 46°02' W 124°16'713.3
2017-Dec-23 01:00N 46°08' W 124°13'4 8.0
2017-Dec-23 00:30N 46°12' W 124°14'2 3.6
2017-Dec-23 00:01N 46°10' W 124°13'2 3.0
2017-Dec-22 23:16N 46°12' W 124°15'511.5
2017-Dec-22 22:52N 46°09' W 124°21'615.3
2017-Dec-22 22:30N 46°08' W 124°28'815.5
2017-Dec-22 22:00N 46°07' W 124°39'510.8
2017-Dec-22 21:30N 46°06' W 124°47'0 0.9
2017-Dec-22 21:00N 46°05' W 124°47'1 1.7
2017-Dec-22 20:30N 46°04' W 124°47'510.2
2017-Dec-22 20:00N 45°59' W 124°46'815.3
2017-Dec-22 19:30N 45°52' W 124°46'5 9.3
2017-Dec-22 19:00N 45°47' W 124°44'4 7.4
2017-Dec-22 18:30N 45°47' W 124°39'3 5.8
2017-Dec-22 18:00N 45°49' W 124°40'1121.2
2017-Dec-22 17:30N 45°59' W 124°45'1021.1
2017-Dec-22 17:01N 46°09' W 124°51'1421.1
2017-Dec-22 16:22N 46°22' W 124°59'821.3
2017-Dec-22 15:59N 46°29' W 125°03'1020.5
2017-Dec-22 15:30N 46°38' W 125°07'815.5
2017-Dec-22 15:00N 46°46' W 125°11'2 3.5
2017-Dec-22 14:26N 46°48' W 125°12'3 7.8
2017-Dec-22 13:59N 46°48' W 125°07'1 2.3
2017-Dec-22 13:30N 46°48' W 125°05'3 5.5
2017-Dec-22 13:00N 46°48' W 125°01'1 1.7
2017-Dec-22 12:30N 46°49' W 125°01'3 5.8
2017-Dec-22 12:00N 46°49' W 125°05'3 5.8
2017-Dec-22 11:30N 46°50' W 125°09'2 3.4
2017-Dec-22 11:00N 46°48' W 125°09'2 5.0
2017-Dec-22 10:30N 46°46' W 125°08'3 5.2
2017-Dec-22 10:00N 46°43' W 125°08'3 5.2
2017-Dec-22 09:30N 46°41' W 125°06'3 5.3
2017-Dec-22 09:00N 46°38' W 125°05'3 5.2
2017-Dec-22 08:30N 46°36' W 125°03'3 5.0
2017-Dec-22 08:00N 46°34' W 125°02'3 5.4
2017-Dec-22 07:30N 46°31' W 125°00'3 5.2
2017-Dec-22 07:00N 46°29' W 124°59'3 5.3
2017-Dec-22 06:30N 46°26' W 124°57'2 4.8
2017-Dec-22 06:00N 46°24' W 124°56'3 5.1
2017-Dec-22 05:30N 46°22' W 124°54'3 5.1
2017-Dec-22 05:00N 46°20' W 124°52'3 5.5
2017-Dec-22 04:30N 46°17' W 124°50'3 5.6
2017-Dec-22 04:00N 46°16' W 124°47'3 6.3
2017-Dec-22 03:30N 46°15' W 124°43'3 6.6
2017-Dec-22 03:00N 46°14' W 124°38'4 7.7
2017-Dec-22 02:30N 46°12' W 124°33'612.6
2017-Dec-22 02:00N 46°10' W 124°24'5 9.8
2017-Dec-22 01:30N 46°09' W 124°18'3 5.4
2017-Dec-22 01:00N 46°08' W 124°14'711.4
2017-Dec-22 00:26N 46°13' W 124°08'512.2
2017-Dec-21 23:59N 46°15' W 124°01'613.0
2017-Dec-21 23:30N 46°11' W 123°54'5 9.7
2017-Dec-21 23:00N 46°13' W 123°47'4 8.5
2017-Dec-21 22:30N 46°15' W 123°42'911.7
2017-Dec-21 21:45N 46°16' W 123°29'310.8
2017-Dec-21 21:27N 46°14' W 123°26'511.7
2017-Dec-21 21:01N 46°09' W 123°24'712.1
2017-Dec-21 20:28N 46°10' W 123°14'612.9
2017-Dec-21 20:01N 46°10' W 123°06'713.4
2017-Dec-21 19:30N 46°06' W 122°58'510.6
2017-Dec-21 19:01N 46°02' W 122°53'510.6
2017-Dec-21 18:31N 45°58' W 122°49'713.2
2017-Dec-21 18:00N 45°51' W 122°47'612.5
2017-Dec-21 17:30N 45°45' W 122°46'612.3
2017-Dec-21 17:00N 45°39' W 122°46'4 7.5
2017-Dec-21 16:30N 45°35' W 122°46'2 4.3
2017-Dec-21 16:00N 45°34' W 122°44'0 0.5
2017-Dec-21 15:30N 45°34' W 122°43'0 0.0
2017-Dec-21 15:00N 45°34' W 122°43'0 0.0
2017-Dec-21 14:30N 45°34' W 122°43'0 0.0
2017-Dec-21 14:00N 45°34' W 122°43'0 0.0
2017-Dec-21 13:30N 45°34' W 122°43'0 0.0
2017-Dec-21 13:00N 45°34' W 122°43'0 0.0
2017-Dec-21 12:30N 45°34' W 122°43'0 0.0
2017-Dec-21 12:00N 45°34' W 122°43'0 0.0
2017-Dec-21 11:30N 45°34' W 122°43'0 0.0
2017-Dec-21 11:00N 45°34' W 122°43'0 0.0
2017-Dec-21 10:30N 45°34' W 122°43'0 0.0
2017-Dec-21 10:00N 45°34' W 122°43'0 0.0
2017-Dec-21 09:30N 45°34' W 122°43'0 0.0
2017-Dec-21 09:00N 45°34' W 122°43'0 0.0
2017-Dec-21 08:30N 45°34' W 122°43'0 0.0
2017-Dec-21 08:00N 45°34' W 122°43'0 0.0
2017-Dec-21 07:30N 45°34' W 122°43'0 0.0
2017-Dec-21 07:00N 45°34' W 122°43'0 0.0
2017-Dec-21 06:27N 45°34' W 122°43'0 0.0
2017-Dec-21 06:00N 45°34' W 122°43'0 0.0
2017-Dec-21 05:27N 45°34' W 122°43'0 0.0
2017-Dec-21 05:00N 45°34' W 122°43'0 0.0
2017-Dec-21 04:30N 45°34' W 122°43'0 0.0
2017-Dec-21 04:00N 45°34' W 122°43'0 0.0
2017-Dec-21 03:30N 45°34' W 122°43'0 0.0
2017-Dec-21 03:00N 45°34' W 122°43'0 0.0
2017-Dec-21 02:30N 45°34' W 122°43'0 0.0
2017-Dec-21 02:00N 45°34' W 122°43'0 0.0
2017-Dec-21 01:30N 45°34' W 122°43'0 0.0
2017-Dec-21 01:00N 45°34' W 122°43'0 0.0
2017-Dec-21 00:30N 45°34' W 122°43'0 0.0
2017-Dec-21 00:00N 45°34' W 122°43'0 0.0
2017-Dec-20 23:30N 45°34' W 122°43'0 0.0
2017-Dec-20 23:00N 45°34' W 122°43'0 0.0
2017-Dec-20 22:30N 45°34' W 122°43'0 0.0
2017-Dec-20 22:00N 45°34' W 122°43'0 0.0
2017-Dec-20 21:30N 45°34' W 122°43'0 0.0
2017-Dec-20 21:00N 45°34' W 122°43'0 0.0
2017-Dec-20 20:30N 45°34' W 122°43'0 0.0
2017-Dec-20 20:00N 45°34' W 122°43'0 0.0
2017-Dec-20 19:30N 45°34' W 122°43'0 0.0
2017-Dec-20 19:00N 45°34' W 122°43'0 0.0
2017-Dec-20 18:30N 45°34' W 122°43'0 0.0
2017-Dec-20 18:00N 45°34' W 122°43'0 0.0
2017-Dec-20 17:30N 45°34' W 122°43'0 0.0
2017-Dec-20 17:00N 45°34' W 122°43'0 0.0
2017-Dec-20 16:30N 45°34' W 122°43'0 0.0
2017-Dec-20 16:00N 45°34' W 122°43'0 0.0
2017-Dec-20 15:30N 45°34' W 122°43'0 0.0
2017-Dec-20 15:00N 45°34' W 122°43'0 0.0
2017-Dec-20 14:30N 45°34' W 122°43'0 0.0
2017-Dec-20 14:00N 45°34' W 122°43'0 0.0
2017-Dec-20 13:27N 45°34' W 122°43'0 0.0
2017-Dec-20 13:00N 45°34' W 122°43'0 0.0
2017-Dec-20 12:30N 45°34' W 122°43'0 0.0
2017-Dec-20 12:00N 45°34' W 122°43'0 0.0
2017-Dec-20 11:30N 45°34' W 122°43'0 0.0
2017-Dec-20 11:00N 45°34' W 122°43'0 0.0
2017-Dec-20 10:30N 45°34' W 122°43'0 0.0
2017-Dec-20 10:00N 45°34' W 122°43'0 0.0
2017-Dec-20 09:30N 45°34' W 122°43'0 0.0
2017-Dec-20 09:00N 45°34' W 122°43'0 0.0
2017-Dec-20 08:30N 45°34' W 122°43'0 0.0
2017-Dec-20 08:00N 45°34' W 122°43'0 0.0
2017-Dec-20 07:30N 45°34' W 122°43'0 0.0
2017-Dec-20 07:00N 45°34' W 122°43'0 0.0
2017-Dec-20 06:30N 45°34' W 122°43'0 0.0
2017-Dec-20 06:00N 45°34' W 122°43'0 0.0
2017-Dec-20 05:30N 45°34' W 122°43'0 0.0
2017-Dec-20 05:00N 45°34' W 122°43'0 0.0
2017-Dec-20 04:30N 45°34' W 122°43'0 0.0
2017-Dec-20 04:00N 45°34' W 122°43'0 0.0
2017-Dec-20 03:30N 45°34' W 122°43'0 0.0
2017-Dec-20 03:00N 45°34' W 122°43'0 0.0
2017-Dec-20 02:30N 45°34' W 122°43'0 0.0
2017-Dec-20 02:00N 45°34' W 122°43'0 0.0
2017-Dec-20 01:30N 45°34' W 122°43'0 0.0
2017-Dec-20 01:00N 45°34' W 122°43'0 0.0
2017-Dec-20 00:30N 45°34' W 122°43'0 0.0
2017-Dec-20 00:00N 45°34' W 122°43'0 0.0
2017-Dec-19 23:30N 45°34' W 122°43'0 0.0
2017-Dec-19 23:00N 45°34' W 122°43'0 0.0
2017-Dec-19 22:30N 45°34' W 122°43'0 0.0
2017-Dec-19 22:00N 45°34' W 122°43'0 0.0
2017-Dec-19 21:30N 45°34' W 122°43'0 0.0
2017-Dec-19 21:00N 45°34' W 122°43'0 0.0
2017-Dec-19 20:30N 45°34' W 122°43'0 0.0
2017-Dec-19 20:00N 45°34' W 122°43'0 0.0
2017-Dec-19 19:30N 45°34' W 122°43'0 0.0
2017-Dec-19 19:00N 45°34' W 122°43'0 0.0
2017-Dec-19 18:30N 45°34' W 122°43'0 0.0
2017-Dec-19 18:00N 45°34' W 122°43'0 0.0
2017-Dec-19 17:30N 45°34' W 122°43'0 0.0
2017-Dec-19 16:57N 45°34' W 122°43'0 0.0
2017-Dec-19 16:30N 45°34' W 122°43'0 0.0
2017-Dec-19 16:00N 45°34' W 122°43'0 0.0
2017-Dec-19 15:30N 45°34' W 122°43'0 0.0
2017-Dec-19 15:00N 45°34' W 122°43'0 0.0
2017-Dec-19 14:30N 45°34' W 122°43'0 0.0
2017-Dec-19 14:00N 45°34' W 122°43'0 0.0
2017-Dec-19 13:30N 45°34' W 122°43'0 0.0
2017-Dec-19 13:00N 45°34' W 122°43'0 0.0
2017-Dec-19 12:30N 45°34' W 122°43'0 0.0
2017-Dec-19 12:00N 45°34' W 122°43'0 0.0
2017-Dec-19 11:27N 45°34' W 122°43'0 0.0
2017-Dec-19 11:00N 45°34' W 122°43'0 0.0
2017-Dec-19 10:30N 45°34' W 122°43'0 0.0
2017-Dec-19 10:00N 45°34' W 122°43'0 0.0
2017-Dec-19 09:30N 45°34' W 122°43'0 0.0
2017-Dec-19 09:00N 45°34' W 122°43'0 0.0
2017-Dec-19 08:30N 45°34' W 122°43'0 0.0
2017-Dec-19 08:00N 45°34' W 122°43'0 0.0
2017-Dec-19 07:30N 45°34' W 122°43'0 0.0
2017-Dec-19 07:00N 45°34' W 122°43'0 0.0
2017-Dec-19 06:30N 45°34' W 122°43'0 0.0
2017-Dec-19 06:00N 45°34' W 122°43'0 0.0
2017-Dec-19 05:30N 45°34' W 122°43'0 0.0
2017-Dec-19 05:00N 45°34' W 122°43'0 0.0
2017-Dec-19 04:30N 45°34' W 122°43'0 0.0
2017-Dec-19 04:00N 45°34' W 122°43'0 0.0
2017-Dec-19 03:30N 45°34' W 122°43'0 0.0
2017-Dec-19 02:57N 45°34' W 122°43'0 0.0
2017-Dec-19 02:30N 45°34' W 122°43'0 0.0
2017-Dec-19 02:00N 45°34' W 122°43'0 0.0
2017-Dec-19 01:30N 45°34' W 122°43'0 0.0
2017-Dec-19 00:54N 45°34' W 122°43'0 0.0
2017-Dec-19 00:30N 45°34' W 122°43'0 0.0
2017-Dec-18 23:57N 45°34' W 122°43'0 0.0
2017-Dec-18 23:30N 45°34' W 122°43'0 0.0
2017-Dec-18 23:00N 45°34' W 122°43'0 0.0
2017-Dec-18 22:30N 45°34' W 122°43'0 0.0
2017-Dec-18 22:00N 45°34' W 122°43'0 0.0
2017-Dec-18 21:30N 45°34' W 122°43'0 0.0
2017-Dec-18 21:00N 45°34' W 122°43'0 0.0
2017-Dec-18 20:27N 45°34' W 122°43'0 0.0
2017-Dec-18 20:00N 45°34' W 122°43'0 0.0
2017-Dec-18 19:30N 45°34' W 122°43'0 0.0
2017-Dec-18 19:00N 45°34' W 122°43'0 0.0
2017-Dec-18 18:30N 45°34' W 122°43'0 0.0
2017-Dec-18 18:00N 45°34' W 122°43'0 0.0
2017-Dec-18 17:30N 45°34' W 122°43'0 0.0
2017-Dec-18 17:00N 45°34' W 122°43'0 0.0
2017-Dec-18 16:30N 45°34' W 122°43'0 0.0
2017-Dec-18 16:00N 45°34' W 122°43'0 0.0
2017-Dec-18 15:30N 45°34' W 122°43'0 0.0
2017-Dec-18 15:00N 45°34' W 122°43'0 0.0
2017-Dec-18 14:30N 45°34' W 122°43'0 0.0
2017-Dec-18 14:00N 45°34' W 122°43'0 0.0
2017-Dec-18 13:30N 45°34' W 122°43'0 0.0
2017-Dec-18 13:00N 45°34' W 122°43'0 0.0
2017-Dec-18 12:30N 45°34' W 122°43'0 0.0
2017-Dec-18 12:00N 45°34' W 122°43'0 0.0
2017-Dec-18 11:30N 45°34' W 122°43'0 0.0
2017-Dec-18 11:00N 45°34' W 122°43'0 0.0
2017-Dec-18 10:30N 45°34' W 122°43'0 0.0
2017-Dec-18 10:00N 45°34' W 122°43'0 0.0
2017-Dec-18 09:30N 45°34' W 122°43'0 0.0
2017-Dec-18 09:00N 45°34' W 122°43'0 0.0
2017-Dec-18 08:30N 45°34' W 122°43'0 0.0
2017-Dec-18 08:00N 45°34' W 122°43'0 0.0
2017-Dec-18 07:30N 45°34' W 122°43'0 0.0
2017-Dec-18 07:00N 45°34' W 122°43'0 0.0
2017-Dec-18 06:30N 45°34' W 122°43'0 0.0
2017-Dec-18 06:00N 45°34' W 122°43'0 0.0
2017-Dec-18 05:30N 45°34' W 122°43'0 0.0
2017-Dec-18 05:00N 45°34' W 122°43'0 0.0
2017-Dec-18 04:30N 45°34' W 122°43'0 0.0
2017-Dec-18 04:00N 45°34' W 122°43'0 0.0
2017-Dec-18 03:30N 45°34' W 122°43'0 0.0
2017-Dec-18 03:00N 45°34' W 122°43'0 0.0
2017-Dec-18 02:30N 45°34' W 122°43'0 0.0
2017-Dec-18 02:00N 45°34' W 122°43'0 0.0
2017-Dec-18 01:30N 45°34' W 122°43'0 0.0
2017-Dec-18 01:00N 45°34' W 122°43'0 0.0
2017-Dec-18 00:30N 45°34' W 122°43'0 0.0
2017-Dec-18 00:00N 45°34' W 122°43'0 0.0
2017-Dec-17 23:30N 45°34' W 122°43'0 0.0
2017-Dec-17 23:00N 45°34' W 122°43'0 0.0
2017-Dec-17 22:30N 45°34' W 122°43'0 0.0
2017-Dec-17 22:00N 45°34' W 122°43'0 0.0
2017-Dec-17 21:30N 45°34' W 122°43'0 0.0
2017-Dec-17 21:00N 45°34' W 122°43'0 0.0
2017-Dec-17 20:30N 45°34' W 122°43'0 0.0
2017-Dec-17 20:00N 45°34' W 122°43'0 0.0
2017-Dec-17 19:30N 45°34' W 122°43'0 0.0
2017-Dec-17 19:00N 45°34' W 122°43'0 0.0
2017-Dec-17 18:30N 45°34' W 122°43'0 0.0
2017-Dec-17 18:00N 45°34' W 122°43'0 0.0
2017-Dec-17 17:30N 45°34' W 122°43'0 0.0
2017-Dec-17 17:00N 45°34' W 122°43'0 0.0
2017-Dec-17 16:30N 45°34' W 122°43'0 0.0
2017-Dec-17 15:57N 45°34' W 122°43'0 0.0
2017-Dec-17 15:30N 45°34' W 122°43'0 0.0
2017-Dec-17 15:00N 45°34' W 122°43'0 0.0
2017-Dec-17 14:30N 45°34' W 122°43'0 0.0
2017-Dec-17 14:00N 45°34' W 122°43'0 0.0
2017-Dec-17 13:30N 45°34' W 122°43'0 0.0
2017-Dec-17 13:00N 45°34' W 122°43'0 0.0
2017-Dec-17 12:30N 45°34' W 122°43'0 0.0
2017-Dec-17 12:00N 45°34' W 122°43'0 0.0
2017-Dec-17 11:30N 45°34' W 122°43'0 0.0
2017-Dec-17 11:00N 45°34' W 122°43'0 0.0
2017-Dec-17 10:30N 45°34' W 122°43'0 0.0
2017-Dec-17 10:00N 45°34' W 122°43'0 0.0
2017-Dec-17 09:30N 45°34' W 122°43'0 0.0
2017-Dec-17 09:00N 45°34' W 122°43'0 0.0
2017-Dec-17 08:30N 45°34' W 122°43'0 0.0
2017-Dec-17 08:00N 45°34' W 122°43'0 0.0
2017-Dec-17 07:30N 45°34' W 122°43'0 0.0
2017-Dec-17 07:00N 45°34' W 122°43'0 0.0
2017-Dec-17 06:30N 45°34' W 122°43'0 0.0
2017-Dec-17 06:00N 45°34' W 122°43'0 0.0
2017-Dec-17 05:30N 45°34' W 122°43'0 0.0
2017-Dec-17 05:00N 45°34' W 122°43'0 0.0
2017-Dec-17 04:30N 45°34' W 122°43'0 0.0
2017-Dec-17 04:00N 45°34' W 122°43'0 0.0
2017-Dec-17 03:30N 45°34' W 122°43'0 0.0
2017-Dec-17 03:00N 45°34' W 122°43'0 0.0
2017-Dec-17 02:30N 45°34' W 122°43'0 0.0
2017-Dec-17 02:00N 45°34' W 122°43'0 0.0
2017-Dec-17 01:30N 45°34' W 122°43'0 0.0
2017-Dec-17 01:00N 45°34' W 122°43'0 0.0
2017-Dec-17 00:30N 45°34' W 122°43'0 0.0
2017-Dec-17 00:00N 45°34' W 122°43'0 0.0
2017-Dec-16 23:30N 45°34' W 122°43'0 0.0
2017-Dec-16 23:00N 45°34' W 122°43'0 0.0
2017-Dec-16 22:30N 45°34' W 122°43'0 0.0
2017-Dec-16 22:00N 45°34' W 122°43'0 0.0
2017-Dec-16 21:30N 45°34' W 122°43'0 0.0
2017-Dec-16 21:00N 45°34' W 122°43'0 0.0
2017-Dec-16 20:30N 45°34' W 122°43'0 0.0
2017-Dec-16 20:00N 45°34' W 122°43'0 0.0
2017-Dec-16 19:30N 45°34' W 122°43'0 0.0
2017-Dec-16 19:00N 45°34' W 122°43'0 0.0
2017-Dec-16 18:30N 45°34' W 122°43'0 0.0
2017-Dec-16 18:00N 45°34' W 122°43'0 0.0
2017-Dec-16 17:30N 45°34' W 122°43'0 0.0
2017-Dec-16 16:57N 45°34' W 122°43'0 0.0
2017-Dec-16 16:30N 45°34' W 122°43'0 0.0
2017-Dec-16 15:57N 45°34' W 122°43'0 0.0
2017-Dec-16 15:30N 45°34' W 122°43'0 0.0
2017-Dec-16 15:00N 45°34' W 122°43'0 0.0
2017-Dec-16 14:30N 45°34' W 122°43'0 0.0
2017-Dec-16 14:00N 45°34' W 122°43'0 0.0
2017-Dec-16 13:30N 45°34' W 122°43'0 0.0
2017-Dec-16 13:00N 45°34' W 122°43'0 0.0
2017-Dec-16 12:30N 45°34' W 122°43'0 0.0
2017-Dec-16 12:00N 45°34' W 122°43'0 0.0
2017-Dec-16 11:30N 45°34' W 122°43'0 0.0
2017-Dec-16 11:00N 45°34' W 122°43'0 0.0
2017-Dec-16 10:30N 45°34' W 122°43'0 0.0
2017-Dec-16 10:00N 45°34' W 122°43'0 0.0
2017-Dec-16 09:30N 45°34' W 122°43'0 0.0
2017-Dec-16 09:00N 45°34' W 122°43'0 0.0
2017-Dec-16 08:30N 45°34' W 122°43'0 0.0
2017-Dec-16 08:00N 45°34' W 122°43'0 0.0
2017-Dec-16 07:30N 45°34' W 122°43'0 0.0
2017-Dec-16 07:00N 45°34' W 122°43'0 0.0
2017-Dec-16 06:30N 45°34' W 122°43'0 0.0
2017-Dec-16 06:00N 45°34' W 122°43'0 0.0
2017-Dec-16 05:30N 45°34' W 122°43'0 0.0
2017-Dec-16 04:57N 45°34' W 122°43'0 0.0
2017-Dec-16 04:30N 45°34' W 122°43'0 0.0
2017-Dec-16 04:00N 45°34' W 122°43'0 0.0
2017-Dec-16 03:30N 45°34' W 122°43'0 0.0
2017-Dec-16 03:00N 45°34' W 122°43'0 0.0
2017-Dec-16 02:30N 45°34' W 122°43'0 0.0
2017-Dec-16 02:00N 45°34' W 122°43'0 0.0
2017-Dec-16 01:30N 45°34' W 122°43'0 0.0
2017-Dec-16 01:00N 45°34' W 122°43'0 0.0
2017-Dec-16 00:30N 45°34' W 122°43'0 0.0
2017-Dec-16 00:00N 45°34' W 122°43'0 0.0
2017-Dec-15 23:30N 45°34' W 122°43'0 0.0
2017-Dec-15 23:00N 45°34' W 122°43'0 0.0
2017-Dec-15 22:30N 45°34' W 122°43'0 0.0
2017-Dec-15 22:00N 45°34' W 122°43'  
Track history (hours):
 
Tides and Currents Weather Stations Pressure Air Temp Water Temp Dewpoint Dewpoint Depression Visibility Wind Speed Wind Dir Waves Ship Positions

Government Vessel 40

Last reported at 2017-Dec-25 21:47 UTC. Time now 2018-Jan-20 03:48 UTC.
Position N 32°49' W 125°45'.
Warning: this ship's position is 25 days out of date.

Length 197 m; draft 7.3 m.

Type: Other ship. MMSI: 338973000.

Date/timePositionNaut miles runAvg speedWind from/ knotsBaromVisibWave heightAir tempDewpointWater temp
2017-Dec-25 21:47N 32°49' W 125°45'310.7
2017-Dec-25 21:30N 32°52' W 125°45'510.9
2017-Dec-25 21:00N 32°57' W 125°45'610.8
2017-Dec-25 20:30N 33°03' W 125°45'4211.6
2017-Dec-25 16:52N 33°45' W 125°45'612.4
2017-Dec-25 16:23N 33°51' W 125°45'2312.5
2017-Dec-25 14:35N 34°14' W 125°45'312.5
2017-Dec-25 14:21N 34°16' W 125°45'412.4
2017-Dec-25 14:00N 34°21' W 125°45'3512.4
2017-Dec-25 11:10N 34°56' W 125°45'212.1
2017-Dec-25 11:00N 34°58' W 125°45'2312.0
2017-Dec-25 09:06N 35°21' W 125°45'111.5
2017-Dec-25 09:00N 35°22' W 125°45'611.8
2017-Dec-25 08:30N 35°28' W 125°45'611.4
2017-Dec-25 08:00N 35°33' W 125°45'611.1
2017-Dec-25 07:30N 35°39' W 125°45'511.0
2017-Dec-25 07:00N 35°44' W 125°45'6510.9
2017-Dec-25 01:01N 36°50' W 125°45'510.9
2017-Dec-25 00:31N 36°55' W 125°45'411.2
2017-Dec-25 00:09N 36°59' W 125°45'310.8
2017-Dec-24 23:54N 37°02' W 125°45'510.7
2017-Dec-24 23:25N 37°07' W 125°45'54 9.6
2017-Dec-24 17:50N 38°01' W 125°45'43011.9
2017-Dec-23 05:47N 45°08' W 124°42'713.6
2017-Dec-23 05:17N 45°14' W 124°39'413.7
2017-Dec-23 04:59N 45°18' W 124°37'613.6
2017-Dec-23 04:31N 45°24' W 124°34'713.2
2017-Dec-23 04:00N 45°31' W 124°30'612.5
2017-Dec-23 03:30N 45°37' W 124°28'613.0
2017-Dec-23 03:00N 45°43' W 124°25'713.1
2017-Dec-23 02:30N 45°49' W 124°22'713.3
2017-Dec-23 02:01N 45°55' W 124°19'713.6
2017-Dec-23 01:31N 46°02' W 124°16'713.3
2017-Dec-23 01:00N 46°08' W 124°13'4 8.0
2017-Dec-23 00:30N 46°12' W 124°14'2 3.6
2017-Dec-23 00:01N 46°10' W 124°13'2 3.0
2017-Dec-22 23:16N 46°12' W 124°15'511.5
2017-Dec-22 22:52N 46°09' W 124°21'615.3
2017-Dec-22 22:30N 46°08' W 124°28'815.5
2017-Dec-22 22:00N 46°07' W 124°39'510.8
2017-Dec-22 21:30N 46°06' W 124°47'0 0.9
2017-Dec-22 21:00N 46°05' W 124°47'1 1.7
2017-Dec-22 20:30N 46°04' W 124°47'510.2
2017-Dec-22 20:00N 45°59' W 124°46'815.3
2017-Dec-22 19:30N 45°52' W 124°46'5 9.3
2017-Dec-22 19:00N 45°47' W 124°44'4 7.4
2017-Dec-22 18:30N 45°47' W 124°39'3 5.8
2017-Dec-22 18:00N 45°49' W 124°40'1121.2
2017-Dec-22 17:30N 45°59' W 124°45'1021.1
2017-Dec-22 17:01N 46°09' W 124°51'1421.1
2017-Dec-22 16:22N 46°22' W 124°59'821.3
2017-Dec-22 15:59N 46°29' W 125°03'1020.5
2017-Dec-22 15:30N 46°38' W 125°07'815.5
2017-Dec-22 15:00N 46°46' W 125°11'2 3.5
2017-Dec-22 14:26N 46°48' W 125°12'3 7.8
2017-Dec-22 13:59N 46°48' W 125°07'1 2.3
2017-Dec-22 13:30N 46°48' W 125°05'3 5.5
2017-Dec-22 13:00N 46°48' W 125°01'1 1.7
2017-Dec-22 12:30N 46°49' W 125°01'3 5.8
2017-Dec-22 12:00N 46°49' W 125°05'3 5.8
2017-Dec-22 11:30N 46°50' W 125°09'2 3.4
2017-Dec-22 11:00N 46°48' W 125°09'2 5.0
2017-Dec-22 10:30N 46°46' W 125°08'3 5.2
2017-Dec-22 10:00N 46°43' W 125°08'3 5.2
2017-Dec-22 09:30N 46°41' W 125°06'3 5.3
2017-Dec-22 09:00N 46°38' W 125°05'3 5.2
2017-Dec-22 08:30N 46°36' W 125°03'3 5.0
2017-Dec-22 08:00N 46°34' W 125°02'3 5.4
2017-Dec-22 07:30N 46°31' W 125°00'3 5.2
2017-Dec-22 07:00N 46°29' W 124°59'3 5.3
2017-Dec-22 06:30N 46°26' W 124°57'2 4.8
2017-Dec-22 06:00N 46°24' W 124°56'3 5.1
2017-Dec-22 05:30N 46°22' W 124°54'3 5.1
2017-Dec-22 05:00N 46°20' W 124°52'3 5.5
2017-Dec-22 04:30N 46°17' W 124°50'3 5.6
2017-Dec-22 04:00N 46°16' W 124°47'3 6.3
2017-Dec-22 03:30N 46°15' W 124°43'3 6.6
2017-Dec-22 03:00N 46°14' W 124°38'4 7.7
2017-Dec-22 02:30N 46°12' W 124°33'612.6
2017-Dec-22 02:00N 46°10' W 124°24'5 9.8
2017-Dec-22 01:30N 46°09' W 124°18'3 5.4
2017-Dec-22 01:00N 46°08' W 124°14'711.4
2017-Dec-22 00:26N 46°13' W 124°08'512.2
2017-Dec-21 23:59N 46°15' W 124°01'613.0
2017-Dec-21 23:30N 46°11' W 123°54'5 9.7
2017-Dec-21 23:00N 46°13' W 123°47'4 8.5
2017-Dec-21 22:30N 46°15' W 123°42'911.7
2017-Dec-21 21:45N 46°16' W 123°29'310.8
2017-Dec-21 21:27N 46°14' W 123°26'511.7
2017-Dec-21 21:01N 46°09' W 123°24'712.1
2017-Dec-21 20:28N 46°10' W 123°14'612.9
2017-Dec-21 20:01N 46°10' W 123°06'713.4
2017-Dec-21 19:30N 46°06' W 122°58'510.6
2017-Dec-21 19:01N 46°02' W 122°53'510.6
2017-Dec-21 18:31N 45°58' W 122°49'713.2
2017-Dec-21 18:00N 45°51' W 122°47'612.5
2017-Dec-21 17:30N 45°45' W 122°46'612.3
2017-Dec-21 17:00N 45°39' W 122°46'4 7.5
2017-Dec-21 16:30N 45°35' W 122°46'2 4.3
2017-Dec-21 16:00N 45°34' W 122°44'0 0.5
2017-Dec-21 15:30N 45°34' W 122°43'0 0.0
2017-Dec-21 15:00N 45°34' W 122°43'0 0.0
2017-Dec-21 14:30N 45°34' W 122°43'0 0.0
2017-Dec-21 14:00N 45°34' W 122°43'0 0.0
2017-Dec-21 13:30N 45°34' W 122°43'0 0.0
2017-Dec-21 13:00N 45°34' W 122°43'0 0.0
2017-Dec-21 12:30N 45°34' W 122°43'0 0.0
2017-Dec-21 12:00N 45°34' W 122°43'0 0.0
2017-Dec-21 11:30N 45°34' W 122°43'0 0.0
2017-Dec-21 11:00N 45°34' W 122°43'0 0.0
2017-Dec-21 10:30N 45°34' W 122°43'0 0.0
2017-Dec-21 10:00N 45°34' W 122°43'0 0.0
2017-Dec-21 09:30N 45°34' W 122°43'0 0.0
2017-Dec-21 09:00N 45°34' W 122°43'0 0.0
2017-Dec-21 08:30N 45°34' W 122°43'0 0.0
2017-Dec-21 08:00N 45°34' W 122°43'0 0.0
2017-Dec-21 07:30N 45°34' W 122°43'0 0.0
2017-Dec-21 07:00N 45°34' W 122°43'0 0.0
2017-Dec-21 06:27N 45°34' W 122°43'0 0.0
2017-Dec-21 06:00N 45°34' W 122°43'0 0.0
2017-Dec-21 05:27N 45°34' W 122°43'0 0.0
2017-Dec-21 05:00N 45°34' W 122°43'0 0.0
2017-Dec-21 04:30N 45°34' W 122°43'0 0.0
2017-Dec-21 04:00N 45°34' W 122°43'0 0.0
2017-Dec-21 03:30N 45°34' W 122°43'0 0.0
2017-Dec-21 03:00N 45°34' W 122°43'0 0.0
2017-Dec-21 02:30N 45°34' W 122°43'0 0.0
2017-Dec-21 02:00N 45°34' W 122°43'0 0.0
2017-Dec-21 01:30N 45°34' W 122°43'0 0.0
2017-Dec-21 01:00N 45°34' W 122°43'0 0.0
2017-Dec-21 00:30N 45°34' W 122°43'0 0.0
2017-Dec-21 00:00N 45°34' W 122°43'0 0.0
2017-Dec-20 23:30N 45°34' W 122°43'0 0.0
2017-Dec-20 23:00N 45°34' W 122°43'0 0.0
2017-Dec-20 22:30N 45°34' W 122°43'0 0.0
2017-Dec-20 22:00N 45°34' W 122°43'0 0.0
2017-Dec-20 21:30N 45°34' W 122°43'0 0.0
2017-Dec-20 21:00N 45°34' W 122°43'0 0.0
2017-Dec-20 20:30N 45°34' W 122°43'0 0.0
2017-Dec-20 20:00N 45°34' W 122°43'0 0.0
2017-Dec-20 19:30N 45°34' W 122°43'0 0.0
2017-Dec-20 19:00N 45°34' W 122°43'0 0.0
2017-Dec-20 18:30N 45°34' W 122°43'0 0.0
2017-Dec-20 18:00N 45°34' W 122°43'0 0.0
2017-Dec-20 17:30N 45°34' W 122°43'0 0.0
2017-Dec-20 17:00N 45°34' W 122°43'0 0.0
2017-Dec-20 16:30N 45°34' W 122°43'0 0.0
2017-Dec-20 16:00N 45°34' W 122°43'0 0.0
2017-Dec-20 15:30N 45°34' W 122°43'0 0.0
2017-Dec-20 15:00N 45°34' W 122°43'0 0.0
2017-Dec-20 14:30N 45°34' W 122°43'0 0.0
2017-Dec-20 14:00N 45°34' W 122°43'0 0.0
2017-Dec-20 13:27N 45°34' W 122°43'0 0.0
2017-Dec-20 13:00N 45°34' W 122°43'0 0.0
2017-Dec-20 12:30N 45°34' W 122°43'0 0.0
2017-Dec-20 12:00N 45°34' W 122°43'0 0.0
2017-Dec-20 11:30N 45°34' W 122°43'0 0.0
2017-Dec-20 11:00N 45°34' W 122°43'0 0.0
2017-Dec-20 10:30N 45°34' W 122°43'0 0.0
2017-Dec-20 10:00N 45°34' W 122°43'0 0.0
2017-Dec-20 09:30N 45°34' W 122°43'0 0.0
2017-Dec-20 09:00N 45°34' W 122°43'0 0.0
2017-Dec-20 08:30N 45°34' W 122°43'0 0.0
2017-Dec-20 08:00N 45°34' W 122°43'0 0.0
2017-Dec-20 07:30N 45°34' W 122°43'0 0.0
2017-Dec-20 07:00N 45°34' W 122°43'0 0.0
2017-Dec-20 06:30N 45°34' W 122°43'0 0.0
2017-Dec-20 06:00N 45°34' W 122°43'0 0.0
2017-Dec-20 05:30N 45°34' W 122°43'0 0.0
2017-Dec-20 05:00N 45°34' W 122°43'0 0.0
2017-Dec-20 04:30N 45°34' W 122°43'0 0.0
2017-Dec-20 04:00N 45°34' W 122°43'0 0.0
2017-Dec-20 03:30N 45°34' W 122°43'0 0.0
2017-Dec-20 03:00N 45°34' W 122°43'0 0.0
2017-Dec-20 02:30N 45°34' W 122°43'0 0.0
2017-Dec-20 02:00N 45°34' W 122°43'0 0.0
2017-Dec-20 01:30N 45°34' W 122°43'0 0.0
2017-Dec-20 01:00N 45°34' W 122°43'0 0.0
2017-Dec-20 00:30N 45°34' W 122°43'0 0.0
2017-Dec-20 00:00N 45°34' W 122°43'0 0.0
2017-Dec-19 23:30N 45°34' W 122°43'0 0.0
2017-Dec-19 23:00N 45°34' W 122°43'0 0.0
2017-Dec-19 22:30N 45°34' W 122°43'0 0.0
2017-Dec-19 22:00N 45°34' W 122°43'0 0.0
2017-Dec-19 21:30N 45°34' W 122°43'0 0.0
2017-Dec-19 21:00N 45°34' W 122°43'0 0.0
2017-Dec-19 20:30N 45°34' W 122°43'0 0.0
2017-Dec-19 20:00N 45°34' W 122°43'0 0.0
2017-Dec-19 19:30N 45°34' W 122°43'0 0.0
2017-Dec-19 19:00N 45°34' W 122°43'0 0.0
2017-Dec-19 18:30N 45°34' W 122°43'0 0.0
2017-Dec-19 18:00N 45°34' W 122°43'0 0.0
2017-Dec-19 17:30N 45°34' W 122°43'0 0.0
2017-Dec-19 16:57N 45°34' W 122°43'0 0.0
2017-Dec-19 16:30N 45°34' W 122°43'0 0.0
2017-Dec-19 16:00N 45°34' W 122°43'0 0.0
2017-Dec-19 15:30N 45°34' W 122°43'0 0.0
2017-Dec-19 15:00N 45°34' W 122°43'0 0.0
2017-Dec-19 14:30N 45°34' W 122°43'0 0.0
2017-Dec-19 14:00N 45°34' W 122°43'0 0.0
2017-Dec-19 13:30N 45°34' W 122°43'0 0.0
2017-Dec-19 13:00N 45°34' W 122°43'0 0.0
2017-Dec-19 12:30N 45°34' W 122°43'0 0.0
2017-Dec-19 12:00N 45°34' W 122°43'0 0.0
2017-Dec-19 11:27N 45°34' W 122°43'0 0.0
2017-Dec-19 11:00N 45°34' W 122°43'0 0.0
2017-Dec-19 10:30N 45°34' W 122°43'0 0.0
2017-Dec-19 10:00N 45°34' W 122°43'0 0.0
2017-Dec-19 09:30N 45°34' W 122°43'0 0.0
2017-Dec-19 09:00N 45°34' W 122°43'0 0.0
2017-Dec-19 08:30N 45°34' W 122°43'0 0.0
2017-Dec-19 08:00N 45°34' W 122°43'0 0.0
2017-Dec-19 07:30N 45°34' W 122°43'0 0.0
2017-Dec-19 07:00N 45°34' W 122°43'0 0.0
2017-Dec-19 06:30N 45°34' W 122°43'0 0.0
2017-Dec-19 06:00N 45°34' W 122°43'0 0.0
2017-Dec-19 05:30N 45°34' W 122°43'0 0.0
2017-Dec-19 05:00N 45°34' W 122°43'0 0.0
2017-Dec-19 04:30N 45°34' W 122°43'0 0.0
2017-Dec-19 04:00N 45°34' W 122°43'0 0.0
2017-Dec-19 03:30N 45°34' W 122°43'0 0.0
2017-Dec-19 02:57N 45°34' W 122°43'0 0.0
2017-Dec-19 02:30N 45°34' W 122°43'0 0.0
2017-Dec-19 02:00N 45°34' W 122°43'0 0.0
2017-Dec-19 01:30N 45°34' W 122°43'0 0.0
2017-Dec-19 00:54N 45°34' W 122°43'0 0.0
2017-Dec-19 00:30N 45°34' W 122°43'0 0.0
2017-Dec-18 23:57N 45°34' W 122°43'0 0.0
2017-Dec-18 23:30N 45°34' W 122°43'0 0.0
2017-Dec-18 23:00N 45°34' W 122°43'0 0.0
2017-Dec-18 22:30N 45°34' W 122°43'0 0.0
2017-Dec-18 22:00N 45°34' W 122°43'0 0.0
2017-Dec-18 21:30N 45°34' W 122°43'0 0.0
2017-Dec-18 21:00N 45°34' W 122°43'0 0.0
2017-Dec-18 20:27N 45°34' W 122°43'0 0.0
2017-Dec-18 20:00N 45°34' W 122°43'0 0.0
2017-Dec-18 19:30N 45°34' W 122°43'0 0.0
2017-Dec-18 19:00N 45°34' W 122°43'0 0.0
2017-Dec-18 18:30N 45°34' W 122°43'0 0.0
2017-Dec-18 18:00N 45°34' W 122°43'0 0.0
2017-Dec-18 17:30N 45°34' W 122°43'0 0.0
2017-Dec-18 17:00N 45°34' W 122°43'0 0.0
2017-Dec-18 16:30N 45°34' W 122°43'0 0.0
2017-Dec-18 16:00N 45°34' W 122°43'0 0.0
2017-Dec-18 15:30N 45°34' W 122°43'0 0.0
2017-Dec-18 15:00N 45°34' W 122°43'0 0.0
2017-Dec-18 14:30N 45°34' W 122°43'0 0.0
2017-Dec-18 14:00N 45°34' W 122°43'0 0.0
2017-Dec-18 13:30N 45°34' W 122°43'0 0.0
2017-Dec-18 13:00N 45°34' W 122°43'0 0.0
2017-Dec-18 12:30N 45°34' W 122°43'0 0.0
2017-Dec-18 12:00N 45°34' W 122°43'0 0.0
2017-Dec-18 11:30N 45°34' W 122°43'0 0.0
2017-Dec-18 11:00N 45°34' W 122°43'0 0.0
2017-Dec-18 10:30N 45°34' W 122°43'0 0.0
2017-Dec-18 10:00N 45°34' W 122°43'0 0.0
2017-Dec-18 09:30N 45°34' W 122°43'0 0.0
2017-Dec-18 09:00N 45°34' W 122°43'0 0.0
2017-Dec-18 08:30N 45°34' W 122°43'0 0.0
2017-Dec-18 08:00N 45°34' W 122°43'0 0.0
2017-Dec-18 07:30N 45°34' W 122°43'0 0.0
2017-Dec-18 07:00N 45°34' W 122°43'0 0.0
2017-Dec-18 06:30N 45°34' W 122°43'0 0.0
2017-Dec-18 06:00N 45°34' W 122°43'0 0.0
2017-Dec-18 05:30N 45°34' W 122°43'0 0.0
2017-Dec-18 05:00N 45°34' W 122°43'0 0.0
2017-Dec-18 04:30N 45°34' W 122°43'0 0.0
2017-Dec-18 04:00N 45°34' W 122°43'0 0.0
2017-Dec-18 03:30N 45°34' W 122°43'0 0.0
2017-Dec-18 03:00N 45°34' W 122°43'0 0.0
2017-Dec-18 02:30N 45°34' W 122°43'0 0.0
2017-Dec-18 02:00N 45°34' W 122°43'0 0.0
2017-Dec-18 01:30N 45°34' W 122°43'0 0.0
2017-Dec-18 01:00N 45°34' W 122°43'0 0.0
2017-Dec-18 00:30N 45°34' W 122°43'0 0.0
2017-Dec-18 00:00N 45°34' W 122°43'0 0.0
2017-Dec-17 23:30N 45°34' W 122°43'0 0.0
2017-Dec-17 23:00N 45°34' W 122°43'0 0.0
2017-Dec-17 22:30N 45°34' W 122°43'0 0.0
2017-Dec-17 22:00N 45°34' W 122°43'0 0.0
2017-Dec-17 21:30N 45°34' W 122°43'0 0.0
2017-Dec-17 21:00N 45°34' W 122°43'0 0.0
2017-Dec-17 20:30N 45°34' W 122°43'0 0.0
2017-Dec-17 20:00N 45°34' W 122°43'0 0.0
2017-Dec-17 19:30N 45°34' W 122°43'0 0.0
2017-Dec-17 19:00N 45°34' W 122°43'0 0.0
2017-Dec-17 18:30N 45°34' W 122°43'0 0.0
2017-Dec-17 18:00N 45°34' W 122°43'0 0.0
2017-Dec-17 17:30N 45°34' W 122°43'0 0.0
2017-Dec-17 17:00N 45°34' W 122°43'0 0.0
2017-Dec-17 16:30N 45°34' W 122°43'0 0.0
2017-Dec-17 15:57N 45°34' W 122°43'0 0.0
2017-Dec-17 15:30N 45°34' W 122°43'0 0.0
2017-Dec-17 15:00N 45°34' W 122°43'0 0.0
2017-Dec-17 14:30N 45°34' W 122°43'0 0.0
2017-Dec-17 14:00N 45°34' W 122°43'0 0.0
2017-Dec-17 13:30N 45°34' W 122°43'0 0.0
2017-Dec-17 13:00N 45°34' W 122°43'0 0.0
2017-Dec-17 12:30N 45°34' W 122°43'0 0.0
2017-Dec-17 12:00N 45°34' W 122°43'0 0.0
2017-Dec-17 11:30N 45°34' W 122°43'0 0.0
2017-Dec-17 11:00N 45°34' W 122°43'0 0.0
2017-Dec-17 10:30N 45°34' W 122°43'0 0.0
2017-Dec-17 10:00N 45°34' W 122°43'0 0.0
2017-Dec-17 09:30N 45°34' W 122°43'0 0.0
2017-Dec-17 09:00N 45°34' W 122°43'0 0.0
2017-Dec-17 08:30N 45°34' W 122°43'0 0.0
2017-Dec-17 08:00N 45°34' W 122°43'0 0.0
2017-Dec-17 07:30N 45°34' W 122°43'0 0.0
2017-Dec-17 07:00N 45°34' W 122°43'0 0.0
2017-Dec-17 06:30N 45°34' W 122°43'0 0.0
2017-Dec-17 06:00N 45°34' W 122°43'0 0.0
2017-Dec-17 05:30N 45°34' W 122°43'0 0.0
2017-Dec-17 05:00N 45°34' W 122°43'0 0.0
2017-Dec-17 04:30N 45°34' W 122°43'0 0.0
2017-Dec-17 04:00N 45°34' W 122°43'0 0.0
2017-Dec-17 03:30N 45°34' W 122°43'0 0.0
2017-Dec-17 03:00N 45°34' W 122°43'0 0.0
2017-Dec-17 02:30N 45°34' W 122°43'0 0.0
2017-Dec-17 02:00N 45°34' W 122°43'0 0.0
2017-Dec-17 01:30N 45°34' W 122°43'0 0.0
2017-Dec-17 01:00N 45°34' W 122°43'0 0.0
2017-Dec-17 00:30N 45°34' W 122°43'0 0.0
2017-Dec-17 00:00N 45°34' W 122°43'0 0.0
2017-Dec-16 23:30N 45°34' W 122°43'0 0.0
2017-Dec-16 23:00N 45°34' W 122°43'0 0.0
2017-Dec-16 22:30N 45°34' W 122°43'0 0.0
2017-Dec-16 22:00N 45°34' W 122°43'0 0.0
2017-Dec-16 21:30N 45°34' W 122°43'0 0.0
2017-Dec-16 21:00N 45°34' W 122°43'0 0.0
2017-Dec-16 20:30N 45°34' W 122°43'0 0.0
2017-Dec-16 20:00N 45°34' W 122°43'0 0.0
2017-Dec-16 19:30N 45°34' W 122°43'0 0.0
2017-Dec-16 19:00N 45°34' W 122°43'0 0.0
2017-Dec-16 18:30N 45°34' W 122°43'0 0.0
2017-Dec-16 18:00N 45°34' W 122°43'0 0.0
2017-Dec-16 17:30N 45°34' W 122°43'0 0.0
2017-Dec-16 16:57N 45°34' W 122°43'0 0.0
2017-Dec-16 16:30N 45°34' W 122°43'0 0.0
2017-Dec-16 15:57N 45°34' W 122°43'0 0.0
2017-Dec-16 15:30N 45°34' W 122°43'0 0.0
2017-Dec-16 15:00N 45°34' W 122°43'0 0.0
2017-Dec-16 14:30N 45°34' W 122°43'0 0.0
2017-Dec-16 14:00N 45°34' W 122°43'0 0.0
2017-Dec-16 13:30N 45°34' W 122°43'0 0.0
2017-Dec-16 13:00N 45°34' W 122°43'0 0.0
2017-Dec-16 12:30N 45°34' W 122°43'0 0.0
2017-Dec-16 12:00N 45°34' W 122°43'0 0.0
2017-Dec-16 11:30N 45°34' W 122°43'0 0.0
2017-Dec-16 11:00N 45°34' W 122°43'0 0.0
2017-Dec-16 10:30N 45°34' W 122°43'0 0.0
2017-Dec-16 10:00N 45°34' W 122°43'0 0.0
2017-Dec-16 09:30N 45°34' W 122°43'0 0.0
2017-Dec-16 09:00N 45°34' W 122°43'0 0.0
2017-Dec-16 08:30N 45°34' W 122°43'0 0.0
2017-Dec-16 08:00N 45°34' W 122°43'0 0.0
2017-Dec-16 07:30N 45°34' W 122°43'0 0.0
2017-Dec-16 07:00N 45°34' W 122°43'0 0.0
2017-Dec-16 06:30N 45°34' W 122°43'0 0.0
2017-Dec-16 06:00N 45°34' W 122°43'0 0.0
2017-Dec-16 05:30N 45°34' W 122°43'0 0.0
2017-Dec-16 04:57N 45°34' W 122°43'0 0.0
2017-Dec-16 04:30N 45°34' W 122°43'0 0.0
2017-Dec-16 04:00N 45°34' W 122°43'0 0.0
2017-Dec-16 03:30N 45°34' W 122°43'0 0.0
2017-Dec-16 03:00N 45°34' W 122°43'0 0.0
2017-Dec-16 02:30N 45°34' W 122°43'0 0.0
2017-Dec-16 02:00N 45°34' W 122°43'0 0.0
2017-Dec-16 01:30N 45°34' W 122°43'0 0.0
2017-Dec-16 01:00N 45°34' W 122°43'0 0.0
2017-Dec-16 00:30N 45°34' W 122°43'0 0.0
2017-Dec-16 00:00N 45°34' W 122°43'0 0.0
2017-Dec-15 23:30N 45°34' W 122°43'0 0.0
2017-Dec-15 23:00N 45°34' W 122°43'0 0.0
2017-Dec-15 22:30N 45°34' W 122°43'0 0.0
2017-Dec-15 22:00N 45°34' W 122°43'  

Dump ship's entire track history